Time;durP1;ratioP1;P1;durP2;ratioP2;P2;SDS_P1;SDS_P2;PMS_P1;PMS_P2;Temp;Humidity;BMP_temperature;BMP_pressure;BME280_temperature;BME280_humidity;BME280_pressure;Samples;Min_cycle;Max_cycle;Signal;HPM_P1;HPM_P2
2024/03/30 00:01:39;;;;;;;12.50;3.38;;;;;;;;;;4997182;28;20037;-82
2024/03/30 00:04:05;;;;;;;17.67;3.50;;;;;;;;;;4994823;28;20040;-82
2024/03/30 00:06:31;;;;;;;19.08;4.63;;;;;;;;;;4996124;28;20432;-83
2024/03/30 00:08:56;;;;;;;19.58;4.10;;;;;;;;;;4977922;28;20057;-83
2024/03/30 00:11:22;;;;;;;14.73;3.28;;;;;;;;;;4977534;28;20473;-82
2024/03/30 00:13:48;;;;;;;18.52;4.32;;;;;;;;;;4994107;28;20096;-83
2024/03/30 00:16:14;;;;;;;18.25;5.15;;;;;;;;;;5010034;28;20049;-82
2024/03/30 00:18:40;;;;;;;18.35;4.40;;;;;;;;;;4977700;28;20428;-83
2024/03/30 00:21:06;;;;;;;22.00;4.47;;;;;;;;;;4977382;28;20033;-82
2024/03/30 00:23:32;;;;;;;21.33;4.68;;;;;;;;;;5010936;28;20520;-83
2024/03/30 00:25:58;;;;;;;23.20;5.32;;;;;;;;;;5011771;28;20191;-82
2024/03/30 00:28:25;;;;;;;26.63;5.68;;;;;;;;;;4978777;28;20477;-82
2024/03/30 00:30:51;;;;;;;21.27;5.78;;;;;;;;;;4979350;28;20180;-83
2024/03/30 00:33:18;;;;;;;17.20;4.85;;;;;;;;;;4995276;28;20053;-83
2024/03/30 00:35:45;;;;;;;21.85;5.57;;;;;;;;;;5011794;28;20056;-82
2024/03/30 00:38:12;;;;;;;16.85;4.75;;;;;;;;;;5011497;28;20093;-83
2024/03/30 00:40:42;;;;;;;17.50;4.60;;;;;;;;;;4995286;28;20046;-83
2024/03/30 00:43:08;;;;;;;17.98;4.68;;;;;;;;;;4995073;28;20046;-83
2024/03/30 00:45:38;;;;;;;22.98;4.65;;;;;;;;;;4995456;28;20393;-82
2024/03/30 00:48:04;;;;;;;19.55;3.65;;;;;;;;;;5011409;28;20124;-81
2024/03/30 00:50:30;;;;;;;21.58;4.18;;;;;;;;;;5011241;28;20050;-82
2024/03/30 00:52:56;;;;;;;16.27;3.83;;;;;;;;;;5011804;28;20100;-82
2024/03/30 00:55:22;;;;;;;16.95;4.00;;;;;;;;;;4994693;28;20132;-82
2024/03/30 00:57:48;;;;;;;19.67;4.93;;;;;;;;;;5011495;28;20042;-82
2024/03/30 01:00:14;;;;;;;15.73;3.85;;;;;;;;;;4978564;28;20050;-82
2024/03/30 01:02:41;;;;;;;23.00;4.47;;;;;;;;;;4994853;28;20037;-82
2024/03/30 01:05:07;;;;;;;22.30;4.40;;;;;;;;;;4994771;28;20056;-82
2024/03/30 01:07:33;;;;;;;30.17;3.58;;;;;;;;;;4994826;28;20044;-82
2024/03/30 01:09:59;;;;;;;16.80;3.45;;;;;;;;;;4995119;28;20034;-81
2024/03/30 01:12:25;;;;;;;25.52;5.28;;;;;;;;;;5010781;28;20160;-82
2024/03/30 01:14:53;;;;;;;21.77;3.90;;;;;;;;;;4995644;28;20042;-82
2024/03/30 01:17:19;;;;;;;20.80;4.10;;;;;;;;;;4978243;28;20070;-82
2024/03/30 01:19:45;;;;;;;17.27;3.72;;;;;;;;;;5027688;28;20046;-83
2024/03/30 01:22:12;;;;;;;14.95;3.35;;;;;;;;;;4977674;28;20046;-82
2024/03/30 01:24:38;;;;;;;21.13;3.38;;;;;;;;;;4994595;28;20350;-82
2024/03/30 01:27:14;;;;;;;18.27;4.68;;;;;;;;;;4994946;28;20125;-82
2024/03/30 01:29:41;;;;;;;15.80;3.63;;;;;;;;;;4991092;28;20084;-82
2024/03/30 01:32:07;;;;;;;18.08;3.65;;;;;;;;;;4974910;28;20048;-83
2024/03/30 01:34:33;;;;;;;19.65;4.65;;;;;;;;;;4991084;28;20096;-80
2024/03/30 01:36:59;;;;;;;19.25;3.53;;;;;;;;;;4972571;28;20034;-80
2024/03/30 01:39:25;;;;;;;19.00;3.38;;;;;;;;;;4992374;28;20039;-79
2024/03/30 01:41:51;;;;;;;16.48;3.92;;;;;;;;;;4992198;28;20533;-80
2024/03/30 01:44:16;;;;;;;25.92;5.38;;;;;;;;;;4992246;28;20050;-80
2024/03/30 01:46:42;;;;;;;22.48;4.30;;;;;;;;;;4992475;28;20385;-80
2024/03/30 01:49:10;;;;;;;17.35;3.97;;;;;;;;;;4992154;28;20112;-80
2024/03/30 01:51:38;;;;;;;22.77;4.35;;;;;;;;;;4992651;28;20121;-80
2024/03/30 01:54:05;;;;;;;16.98;3.63;;;;;;;;;;4991731;28;20121;-79
2024/03/30 01:56:32;;;;;;;15.88;3.90;;;;;;;;;;4992280;28;20046;-80
2024/03/30 01:59:02;;;;;;;26.20;4.43;;;;;;;;;;5008367;28;20050;-80
2024/03/30 02:01:28;;;;;;;17.25;3.45;;;;;;;;;;4990097;28;20043;-80
2024/03/30 02:03:54;;;;;;;22.45;4.25;;;;;;;;;;4990962;28;20448;-80
2024/03/30 02:06:21;;;;;;;15.18;3.58;;;;;;;;;;4990237;28;20046;-81
2024/03/30 02:08:50;;;;;;;19.55;3.85;;;;;;;;;;4990531;28;20046;-81
2024/03/30 02:11:18;;;;;;;20.27;4.38;;;;;;;;;;4990371;28;20052;-80
2024/03/30 02:13:45;;;;;;;18.67;3.30;;;;;;;;;;4990753;28;20056;-80
2024/03/30 02:16:11;;;;;;;21.55;3.50;;;;;;;;;;4990220;28;20449;-80
2024/03/30 02:18:36;;;;;;;12.48;2.95;;;;;;;;;;4990519;28;20355;-81
2024/03/30 02:21:02;;;;;;;30.27;5.32;;;;;;;;;;4990757;28;20042;-80
2024/03/30 02:23:28;;;;;;;19.33;4.40;;;;;;;;;;5006605;28;20034;-80
2024/03/30 02:25:58;;;;;;;21.75;5.10;;;;;;;;;;5010068;28;20038;-81
2024/03/30 02:28:24;;;;;;;19.00;5.10;;;;;;;;;;4993279;28;20179;-80
2024/03/30 02:30:50;;;;;;;24.67;5.32;;;;;;;;;;4993646;28;20038;-80
2024/03/30 02:33:16;;;;;;;16.38;3.30;;;;;;;;;;4979530;28;20050;-81
2024/03/30 02:35:42;;;;;;;17.85;3.67;;;;;;;;;;4997950;28;20034;-80
2024/03/30 02:38:08;;;;;;;17.60;3.90;;;;;;;;;;5013714;28;20034;-81
2024/03/30 02:40:34;;;;;;;21.65;4.43;;;;;;;;;;4981523;28;20580;-81
2024/03/30 02:42:59;;;;;;;24.08;4.75;;;;;;;;;;4997705;28;20045;-80
2024/03/30 02:45:25;;;;;;;17.83;3.40;;;;;;;;;;4997095;28;20136;-80
2024/03/30 02:47:51;;;;;;;15.65;4.15;;;;;;;;;;4981471;28;20509;-80
2024/03/30 02:50:17;;;;;;;19.73;3.47;;;;;;;;;;4997360;28;20472;-81
2024/03/30 02:52:42;;;;;;;17.23;2.88;;;;;;;;;;4981097;28;20095;-80
2024/03/30 02:55:08;;;;;;;22.40;3.60;;;;;;;;;;4998101;28;20049;-80
2024/03/30 02:57:34;;;;;;;18.92;3.25;;;;;;;;;;4997912;28;20533;-81
2024/03/30 03:00:00;;;;;;;22.30;3.53;;;;;;;;;;4998830;28;20049;-79
2024/03/30 03:02:25;;;;;;;19.67;3.55;;;;;;;;;;5000404;28;20041;-80
2024/03/30 03:04:51;;;;;;;21.38;3.92;;;;;;;;;;4999694;28;20049;-80
2024/03/30 03:07:17;;;;;;;21.95;3.20;;;;;;;;;;4999561;28;20069;-80
2024/03/30 03:09:43;;;;;;;16.80;3.20;;;;;;;;;;5018659;28;20045;-80
2024/03/30 03:12:08;;;;;;;17.48;2.95;;;;;;;;;;4984286;28;20045;-81
2024/03/30 03:14:35;;;;;;;18.23;2.78;;;;;;;;;;5000775;28;20041;-81
2024/03/30 03:17:01;;;;;;;19.35;2.88;;;;;;;;;;4981357;28;20045;-81
2024/03/30 03:19:27;;;;;;;22.40;3.78;;;;;;;;;;4996177;28;20438;-81
2024/03/30 03:21:53;;;;;;;16.35;2.58;;;;;;;;;;5029404;28;20045;-81
2024/03/30 03:24:19;;;;;;;16.15;3.65;;;;;;;;;;5013049;28;20488;-82
2024/03/30 03:26:44;;;;;;;26.10;3.97;;;;;;;;;;4996734;28;20041;-82
2024/03/30 03:29:10;;;;;;;13.18;2.75;;;;;;;;;;4996353;28;20088;-81
2024/03/30 03:31:36;;;;;;;15.60;2.85;;;;;;;;;;4996729;28;20048;-82
2024/03/30 03:34:01;;;;;;;18.75;2.53;;;;;;;;;;5013166;28;20180;-82
2024/03/30 03:36:27;;;;;;;25.10;3.13;;;;;;;;;;4996304;28;20042;-81
2024/03/30 03:38:53;;;;;;;15.23;3.42;;;;;;;;;;5012943;28;20048;-81
2024/03/30 03:41:19;;;;;;;20.70;3.13;;;;;;;;;;5012438;28;20038;-81
2024/03/30 03:43:44;;;;;;;24.52;5.45;;;;;;;;;;4995877;28;20552;-82
2024/03/30 03:46:10;;;;;;;28.60;5.38;;;;;;;;;;5012364;28;20057;-81
2024/03/30 03:48:36;;;;;;;22.40;4.10;;;;;;;;;;4996305;28;20108;-81
2024/03/30 03:51:02;;;;;;;17.17;3.53;;;;;;;;;;4996649;28;20045;-81
2024/03/30 03:53:27;;;;;;;30.20;4.15;;;;;;;;;;5012312;28;20092;-81
2024/03/30 03:55:53;;;;;;;14.05;2.80;;;;;;;;;;5012793;28;20042;-81
2024/03/30 03:58:19;;;;;;;19.98;2.78;;;;;;;;;;4995649;28;20141;-82
2024/03/30 04:00:45;;;;;;;18.13;3.00;;;;;;;;;;4996047;28;20479;-81
2024/03/30 04:03:10;;;;;;;17.40;3.00;;;;;;;;;;5012189;28;20173;-81
2024/03/30 04:05:36;;;;;;;25.30;4.03;;;;;;;;;;4996134;28;20044;-81
2024/03/30 04:08:02;;;;;;;14.02;2.50;;;;;;;;;;5012647;28;20041;-81
2024/03/30 04:10:28;;;;;;;19.88;3.10;;;;;;;;;;4994527;28;20085;-81
2024/03/30 04:12:54;;;;;;;20.77;2.92;;;;;;;;;;5012490;28;20045;-81
2024/03/30 04:15:20;;;;;;;18.58;3.58;;;;;;;;;;4995758;28;20038;-81
2024/03/30 04:17:47;;;;;;;20.60;4.88;;;;;;;;;;5012271;28;20568;-82
2024/03/30 04:20:13;;;;;;;21.67;3.63;;;;;;;;;;4979510;28;20045;-82
2024/03/30 04:22:39;;;;;;;30.05;5.03;;;;;;;;;;5011954;28;20096;-81
2024/03/30 04:25:06;;;;;;;16.67;3.45;;;;;;;;;;5011838;28;20046;-81
2024/03/30 04:27:32;;;;;;;16.23;4.05;;;;;;;;;;4979349;28;20499;-81
2024/03/30 04:29:58;;;;;;;29.85;4.22;;;;;;;;;;4996024;28;20048;-82
2024/03/30 04:32:24;;;;;;;26.77;4.43;;;;;;;;;;4994943;28;20074;-81
2024/03/30 04:34:50;;;;;;;26.42;7.70;;;;;;;;;;4995702;28;20444;-82
2024/03/30 04:37:16;;;;;;;27.98;10.23;;;;;;;;;;4995313;28;20126;-81
2024/03/30 04:39:42;;;;;;;33.00;8.35;;;;;;;;;;4995384;28;20038;-82
2024/03/30 04:42:12;;;;;;;27.48;7.32;;;;;;;;;;5011424;28;20476;-81
2024/03/30 04:44:37;;;;;;;23.63;5.30;;;;;;;;;;4995215;28;20129;-82
2024/03/30 04:47:04;;;;;;;15.82;4.05;;;;;;;;;;4995386;28;20034;-80
2024/03/30 04:49:29;;;;;;;24.70;6.80;;;;;;;;;;4995224;28;20046;-81
2024/03/30 04:51:55;;;;;;;38.95;8.35;;;;;;;;;;4995353;28;20061;-82
2024/03/30 04:54:21;;;;;;;47.72;16.80;;;;;;;;;;4995046;28;20048;-81
2024/03/30 04:56:47;;;;;;;25.00;8.35;;;;;;;;;;5011520;28;20037;-82
2024/03/30 04:59:13;;;;;;;22.30;6.50;;;;;;;;;;4994524;28;20045;-81
2024/03/30 05:01:40;;;;;;;18.50;5.07;;;;;;;;;;5011196;28;20057;-81
2024/03/30 05:04:06;;;;;;;17.60;4.68;;;;;;;;;;4994947;28;20099;-81
2024/03/30 05:06:32;;;;;;;19.58;4.97;;;;;;;;;;5011218;28;20408;-82
2024/03/30 05:08:57;;;;;;;20.30;3.95;;;;;;;;;;4978946;28;20037;-82
2024/03/30 05:11:23;;;;;;;16.55;4.18;;;;;;;;;;4994456;28;20484;-82
2024/03/30 05:13:49;;;;;;;18.25;4.50;;;;;;;;;;4994871;28;20129;-81
2024/03/30 05:16:15;;;;;;;18.45;4.30;;;;;;;;;;4978303;28;20469;-82
2024/03/30 05:18:40;;;;;;;15.20;3.95;;;;;;;;;;5011052;28;20042;-81
2024/03/30 05:21:06;;;;;;;19.25;3.53;;;;;;;;;;4994429;28;20050;-81
2024/03/30 05:23:34;;;;;;;23.10;3.70;;;;;;;;;;4994747;28;20049;-82
2024/03/30 05:26:04;;;;;;;14.65;4.28;;;;;;;;;;5011002;28;20038;-81
2024/03/30 05:28:32;;;;;;;13.02;3.33;;;;;;;;;;4985088;28;20133;-81
2024/03/30 05:31:02;;;;;;;16.98;3.50;;;;;;;;;;4994867;28;20042;-82
2024/03/30 05:33:27;;;;;;;24.17;3.22;;;;;;;;;;4994154;28;20419;-82
2024/03/30 05:35:54;;;;;;;15.43;3.63;;;;;;;;;;5010814;28;20081;-81
2024/03/30 05:38:20;;;;;;;18.08;4.00;;;;;;;;;;4977809;28;20117;-83
2024/03/30 05:40:47;;;;;;;19.27;3.45;;;;;;;;;;4994246;28;20052;-82
2024/03/30 05:43:14;;;;;;;18.13;3.40;;;;;;;;;;4977747;28;20049;-82
2024/03/30 05:45:41;;;;;;;18.52;3.55;;;;;;;;;;4994120;28;20066;-82
2024/03/30 05:48:08;;;;;;;14.05;3.88;;;;;;;;;;4994190;28;20492;-82
2024/03/30 05:50:35;;;;;;;15.10;3.95;;;;;;;;;;4977764;28;20046;-82
2024/03/30 05:53:02;;;;;;;11.00;3.05;;;;;;;;;;5011844;28;20052;-88
2024/03/30 05:55:28;;;;;;;16.40;3.45;;;;;;;;;;5011242;28;20056;-81
2024/03/30 05:57:54;;;;;;;16.35;4.30;;;;;;;;;;5011817;28;20495;-82
2024/03/30 06:00:21;;;;;;;18.42;3.97;;;;;;;;;;5011530;28;20066;-81
2024/03/30 06:02:47;;;;;;;20.98;4.93;;;;;;;;;;4995652;28;20485;-81
2024/03/30 06:05:13;;;;;;;22.70;3.97;;;;;;;;;;5011504;28;20128;-81
2024/03/30 06:07:40;;;;;;;19.38;4.38;;;;;;;;;;4995132;28;20400;-81
2024/03/30 06:10:08;;;;;;;20.50;3.72;;;;;;;;;;5011389;28;20503;-81
2024/03/30 06:12:34;;;;;;;17.30;4.07;;;;;;;;;;4995340;28;20038;-82
2024/03/30 06:15:01;;;;;;;19.52;5.78;;;;;;;;;;4995375;28;20612;-81
2024/03/30 06:17:27;;;;;;;19.40;5.50;;;;;;;;;;5011361;28;20152;-82
2024/03/30 06:19:54;;;;;;;24.35;5.55;;;;;;;;;;5011638;28;20052;-82
2024/03/30 06:22:22;;;;;;;21.58;6.80;;;;;;;;;;5011004;28;20037;-80
2024/03/30 06:24:47;;;;;;;24.20;6.72;;;;;;;;;;4995516;28;20041;-82
2024/03/30 06:27:13;;;;;;;17.17;4.43;;;;;;;;;;4978401;28;20045;-81
2024/03/30 06:29:39;;;;;;;20.13;5.05;;;;;;;;;;5008361;28;20045;-82
2024/03/30 06:32:06;;;;;;;18.85;4.18;;;;;;;;;;5005121;28;20037;-79
2024/03/30 06:34:32;;;;;;;20.95;3.97;;;;;;;;;;4992290;28;20250;-82
2024/03/30 06:36:58;;;;;;;22.92;3.47;;;;;;;;;;4992467;28;20048;-81
2024/03/30 06:39:24;;;;;;;20.70;3.60;;;;;;;;;;5007678;28;20054;-81
2024/03/30 06:44:35;;;;;;;15.05;3.03;;;;;;;;;;4991587;28;20121;-81
2024/03/30 06:47:01;;;;;;;12.88;2.92;;;;;;;;;;4992754;28;20049;-81
2024/03/30 06:49:27;;;;;;;13.05;3.05;;;;;;;;;;5008332;28;20053;-82
2024/03/30 06:51:53;;;;;;;14.20;4.30;;;;;;;;;;4991980;28;20046;-81
2024/03/30 06:54:20;;;;;;;12.18;3.28;;;;;;;;;;4973924;28;20437;-81
2024/03/30 06:56:46;;;;;;;16.80;4.97;;;;;;;;;;4990009;28;20038;-88
2024/03/30 06:59:15;;;;;;;22.52;2.70;;;;;;;;;;4973621;28;20497;-81
2024/03/30 07:01:41;;;;;;;12.40;2.75;;;;;;;;;;4990134;28;20057;-81
2024/03/30 07:04:07;;;;;;;13.52;3.30;;;;;;;;;;4991744;28;20130;-81
2024/03/30 07:06:33;;;;;;;14.48;3.40;;;;;;;;;;5009885;28;20473;-81
2024/03/30 07:08:59;;;;;;;21.33;3.67;;;;;;;;;;4973699;28;20432;-82
2024/03/30 07:11:25;;;;;;;20.35;3.78;;;;;;;;;;5016526;28;20042;-82
2024/03/30 07:13:51;;;;;;;19.98;3.55;;;;;;;;;;4974031;28;20042;-81
2024/03/30 07:16:17;;;;;;;16.98;3.28;;;;;;;;;;4967364;28;20100;-82
2024/03/30 07:18:43;;;;;;;16.60;2.60;;;;;;;;;;4973679;28;20521;-81
2024/03/30 07:21:09;;;;;;;16.58;3.20;;;;;;;;;;5017910;28;20403;-81
2024/03/30 07:23:35;;;;;;;15.23;3.58;;;;;;;;;;4997932;28;20057;-82
2024/03/30 07:26:05;;;;;;;16.08;3.45;;;;;;;;;;5018050;28;20076;-80
2024/03/30 07:28:31;;;;;;;19.23;3.35;;;;;;;;;;4998620;28;20052;-80
2024/03/30 07:31:04;;;;;;;14.82;3.70;;;;;;;;;;5013172;28;20045;-81
2024/03/30 07:33:30;;;;;;;13.40;3.20;;;;;;;;;;4996535;28;20046;-80
2024/03/30 07:35:56;;;;;;;15.93;3.30;;;;;;;;;;4996529;28;20451;-82
2024/03/30 07:38:27;;;;;;;12.65;3.05;;;;;;;;;;4995758;28;20129;-82
2024/03/30 07:40:53;;;;;;;18.60;4.18;;;;;;;;;;5013014;28;20054;-81
2024/03/30 07:43:19;;;;;;;12.07;2.28;;;;;;;;;;5012817;28;20057;-82
2024/03/30 07:45:46;;;;;;;13.57;2.80;;;;;;;;;;4996671;28;20034;-81
2024/03/30 07:48:12;;;;;;;15.48;3.17;;;;;;;;;;4995513;28;20048;-82
2024/03/30 07:50:37;;;;;;;12.40;2.42;;;;;;;;;;5011329;28;20034;-81
2024/03/30 07:53:03;;;;;;;20.23;3.58;;;;;;;;;;5011478;28;20100;-82
2024/03/30 07:55:30;;;;;;;14.55;2.65;;;;;;;;;;4991428;28;20042;-81
2024/03/30 07:57:56;;;;;;;13.55;3.33;;;;;;;;;;4976761;28;20038;-81
2024/03/30 08:00:23;;;;;;;13.13;2.78;;;;;;;;;;5009726;28;20080;-81
2024/03/30 08:02:49;;;;;;;16.55;3.00;;;;;;;;;;4995956;28;20129;-81
2024/03/30 08:05:16;;;;;;;20.13;3.58;;;;;;;;;;4995386;28;20042;-81
2024/03/30 08:07:41;;;;;;;12.98;3.33;;;;;;;;;;4977792;28;20085;-81
2024/03/30 08:10:07;;;;;;;15.50;3.00;;;;;;;;;;5011632;28;20073;-81
2024/03/30 08:12:33;;;;;;;15.82;3.00;;;;;;;;;;5006675;28;20053;-81
2024/03/30 08:14:59;;;;;;;12.73;3.00;;;;;;;;;;4991821;28;20477;-81
2024/03/30 08:17:25;;;;;;;13.73;2.60;;;;;;;;;;4991058;28;20042;-82
2024/03/30 08:19:50;;;;;;;18.48;3.10;;;;;;;;;;4976407;28;20163;-81
2024/03/30 08:22:16;;;;;;;16.10;3.40;;;;;;;;;;4975489;28;20073;-82
2024/03/30 08:24:42;;;;;;;16.27;3.03;;;;;;;;;;4989863;28;20041;-82
2024/03/30 08:27:08;;;;;;;11.68;2.60;;;;;;;;;;4994911;28;20042;-81
2024/03/30 08:29:34;;;;;;;12.05;3.17;;;;;;;;;;5011800;28;20065;-82
2024/03/30 08:31:59;;;;;;;21.80;3.67;;;;;;;;;;5010985;28;20038;-81
2024/03/30 08:34:25;;;;;;;12.75;3.15;;;;;;;;;;5011364;28;20049;-82
2024/03/30 08:36:51;;;;;;;9.23;2.03;;;;;;;;;;4995298;28;20199;-81
2024/03/30 08:39:17;;;;;;;13.35;2.60;;;;;;;;;;4994988;28;20068;-82
2024/03/30 08:41:42;;;;;;;12.68;2.78;;;;;;;;;;5011388;28;20080;-82
2024/03/30 08:44:08;;;;;;;12.18;2.47;;;;;;;;;;4994641;28;20042;-81
2024/03/30 08:46:34;;;;;;;16.77;2.20;;;;;;;;;;5011604;28;20038;-82
2024/03/30 08:49:04;;;;;;;13.65;2.20;;;;;;;;;;5011676;28;20046;-82
2024/03/30 08:51:30;;;;;;;9.82;1.73;;;;;;;;;;4993387;28;20490;-81
2024/03/30 08:54:02;;;;;;;12.30;2.03;;;;;;;;;;4993405;28;20362;-82
2024/03/30 08:56:29;;;;;;;7.05;1.38;;;;;;;;;;4993087;28;20052;-80
2024/03/30 08:58:55;;;;;;;11.00;2.05;;;;;;;;;;4994909;28;20369;-84
2024/03/30 09:01:25;;;;;;;13.60;1.80;;;;;;;;;;4993276;28;20046;-82
2024/03/30 09:03:51;;;;;;;15.80;1.65;;;;;;;;;;4995368;28;20535;-83
2024/03/30 09:06:17;;;;;;;15.73;1.85;;;;;;;;;;5012218;28;20046;-82
2024/03/30 09:08:44;;;;;;;13.15;2.47;;;;;;;;;;4980303;28;20062;-81
2024/03/30 09:11:10;;;;;;;9.32;1.60;;;;;;;;;;4979770;28;20045;-82
2024/03/30 09:13:37;;;;;;;11.02;2.13;;;;;;;;;;4996431;28;20074;-82
2024/03/30 09:16:03;;;;;;;9.50;2.03;;;;;;;;;;4996212;28;20045;-82
2024/03/30 09:18:29;;;;;;;12.50;2.05;;;;;;;;;;4995724;28;20507;-81
2024/03/30 09:20:56;;;;;;;130.13;16.35;;;;;;;;;;4995779;28;20041;-83
2024/03/30 09:23:21;;;;;;;19.10;2.20;;;;;;;;;;4995522;28;20534;-81
2024/03/30 09:25:47;;;;;;;10.23;1.65;;;;;;;;;;5012506;28;20050;-80
2024/03/30 09:28:13;;;;;;;9.82;1.70;;;;;;;;;;5012011;28;20049;-80
2024/03/30 09:30:38;;;;;;;13.18;2.13;;;;;;;;;;4996061;28;20045;-80
2024/03/30 09:33:04;;;;;;;10.57;2.30;;;;;;;;;;5012014;28;20046;-79
2024/03/30 09:35:30;;;;;;;12.70;2.17;;;;;;;;;;5012421;28;20076;-80
2024/03/30 09:37:55;;;;;;;17.25;2.42;;;;;;;;;;4995882;28;20041;-80
2024/03/30 09:40:21;;;;;;;12.20;2.28;;;;;;;;;;4995702;28;20401;-80
2024/03/30 09:42:49;;;;;;;14.68;2.08;;;;;;;;;;5011518;28;20057;-81
2024/03/30 09:45:15;;;;;;;14.98;1.85;;;;;;;;;;5011809;28;20046;-80
2024/03/30 09:47:43;;;;;;;13.07;1.95;;;;;;;;;;5012237;28;20049;-80
2024/03/30 09:50:10;;;;;;;14.20;1.90;;;;;;;;;;4994986;28;20050;-81
2024/03/30 09:52:40;;;;;;;13.32;1.98;;;;;;;;;;5011907;28;20042;-81
2024/03/30 09:55:14;;;;;;;11.93;2.20;;;;;;;;;;4995180;28;20469;-81
2024/03/30 09:57:47;;;;;;;13.85;1.73;;;;;;;;;;5010827;28;20548;-81
2024/03/30 10:00:14;;;;;;;15.07;2.50;;;;;;;;;;5010211;28;20307;-81
2024/03/30 10:02:42;;;;;;;9.75;2.15;;;;;;;;;;4991509;28;20042;-81
2024/03/30 10:05:09;;;;;;;11.52;1.95;;;;;;;;;;4975499;28;20084;-81
2024/03/30 10:07:53;;;;;;;10.27;2.30;;;;;;;;;;4978262;28;20048;-80
2024/03/30 10:10:21;;;;;;;11.35;1.77;;;;;;;;;;4977750;28;20145;-81
2024/03/30 10:13:07;;;;;;;11.43;2.00;;;;;;;;;;4994128;28;20111;-81
2024/03/30 10:15:46;;;;;;;9.27;1.98;;;;;;;;;;4977053;28;20046;-81
2024/03/30 10:18:16;;;;;;;11.65;1.35;;;;;;;;;;5009811;28;20084;-84
2024/03/30 10:20:42;;;;;;;14.63;1.52;;;;;;;;;;4976404;28;20042;-86
2024/03/30 10:23:08;;;;;;;15.60;2.33;;;;;;;;;;4977487;28;20038;-81
2024/03/30 10:25:37;;;;;;;10.00;1.60;;;;;;;;;;4995291;28;20056;-87
2024/03/30 10:28:06;;;;;;;10.60;1.58;;;;;;;;;;4977129;28;20042;-80
2024/03/30 10:30:32;;;;;;;10.32;1.80;;;;;;;;;;4976858;28;20053;-81
2024/03/30 10:33:04;;;;;;;9.77;1.98;;;;;;;;;;4975623;28;20186;-79
2024/03/30 10:35:29;;;;;;;16.55;2.47;;;;;;;;;;5011618;28;20054;-82
2024/03/30 10:37:57;;;;;;;12.38;1.85;;;;;;;;;;4979881;28;20181;-80
2024/03/30 10:40:24;;;;;;;12.85;1.85;;;;;;;;;;5011953;28;20540;-82
2024/03/30 10:42:54;;;;;;;8.75;1.58;;;;;;;;;;4978892;28;20033;-83
2024/03/30 10:45:20;;;;;;;8.30;2.20;;;;;;;;;;5011245;28;20099;-82
2024/03/30 10:47:46;;;;;;;8.05;1.77;;;;;;;;;;4994674;28;20420;-81
2024/03/30 10:50:13;;;;;;;10.52;1.95;;;;;;;;;;4978044;28;20077;-82
2024/03/30 10:52:39;;;;;;;7.03;1.55;;;;;;;;;;4972172;28;20128;-83
2024/03/30 10:55:05;;;;;;;14.70;2.92;;;;;;;;;;4986906;28;20141;-83
2024/03/30 10:57:31;;;;;;;8.73;2.25;;;;;;;;;;4997446;28;20042;-82
2024/03/30 11:00:01;;;;;;;10.80;1.80;;;;;;;;;;5012823;28;20485;-82
2024/03/30 11:02:29;;;;;;;12.38;2.45;;;;;;;;;;5003299;28;20476;-83
2024/03/30 11:04:54;;;;;;;9.32;2.03;;;;;;;;;;4984493;28;20069;-82
2024/03/30 11:07:23;;;;;;;12.40;1.75;;;;;;;;;;4996637;28;20463;-82
2024/03/30 11:10:07;;;;;;;9.82;2.08;;;;;;;;;;4986246;28;20042;-90
2024/03/30 11:12:33;;;;;;;13.02;2.47;;;;;;;;;;5005070;28;20034;-81
2024/03/30 11:15:00;;;;;;;8.70;1.73;;;;;;;;;;5021511;28;20040;-80
2024/03/30 11:17:31;;;;;;;14.88;1.98;;;;;;;;;;5006836;28;20073;-87
2024/03/30 11:20:18;;;;;;;14.02;2.15;;;;;;;;;;5004811;28;20112;-86
2024/03/30 11:23:05;;;;;;;9.27;2.28;;;;;;;;;;5007526;28;20478;-87
2024/03/30 11:25:34;;;;;;;9.70;1.92;;;;;;;;;;5023204;28;20132;-82
2024/03/30 11:28:14;;;;;;;13.95;3.50;;;;;;;;;;5030612;28;20059;-83
2024/03/30 11:30:43;;;;;;;11.73;2.72;;;;;;;;;;5023601;28;20046;-83
2024/03/30 11:33:19;;;;;;;7.68;1.58;;;;;;;;;;5029994;28;20049;-87
2024/03/30 11:35:55;;;;;;;7.70;1.70;;;;;;;;;;4985102;28;20076;-82
2024/03/30 11:38:23;;;;;;;13.07;1.58;;;;;;;;;;5022370;28;20042;-81
2024/03/30 11:41:01;;;;;;;14.95;1.58;;;;;;;;;;5020812;28;20050;-80
2024/03/30 11:43:29;;;;;;;12.50;1.77;;;;;;;;;;5019762;28;20042;-77
2024/03/30 11:45:56;;;;;;;9.40;1.63;;;;;;;;;;5022076;28;20362;-77
2024/03/30 11:48:23;;;;;;;13.02;2.13;;;;;;;;;;5022633;28;20037;-77
2024/03/30 11:50:49;;;;;;;10.93;1.38;;;;;;;;;;5004805;28;20045;-76
2024/03/30 11:53:15;;;;;;;12.40;1.80;;;;;;;;;;5001969;28;20045;-77
2024/03/30 11:55:43;;;;;;;9.98;1.77;;;;;;;;;;5022108;28;20388;-77
2024/03/30 11:58:23;;;;;;;10.80;1.75;;;;;;;;;;5006274;28;20120;-77
2024/03/30 12:00:54;;;;;;;7.25;1.52;;;;;;;;;;5022264;28;20091;-76
2024/03/30 12:03:20;;;;;;;12.57;1.92;;;;;;;;;;5017770;28;20541;-77
2024/03/30 12:05:50;;;;;;;8.63;1.50;;;;;;;;;;5005685;28;20034;-77
2024/03/30 12:08:16;;;;;;;9.05;1.95;;;;;;;;;;5000958;28;20099;-77
2024/03/30 12:10:47;;;;;;;11.80;1.60;;;;;;;;;;5005005;28;20041;-77
2024/03/30 12:13:13;;;;;;;11.30;1.40;;;;;;;;;;5018013;28;20481;-77
2024/03/30 12:15:39;;;;;;;14.43;1.83;;;;;;;;;;5002626;28;20461;-76
2024/03/30 12:18:04;;;;;;;6.25;1.70;;;;;;;;;;5015193;28;20038;-76
2024/03/30 12:20:30;;;;;;;15.13;1.77;;;;;;;;;;5011575;28;20053;-77
2024/03/30 12:22:56;;;;;;;14.27;4.28;;;;;;;;;;4993573;28;20042;-78
2024/03/30 12:25:25;;;;;;;19.92;9.18;;;;;;;;;;4995658;28;20041;-78
2024/03/30 12:27:50;;;;;;;10.77;2.75;;;;;;;;;;5011864;28;20044;-78
2024/03/30 12:30:16;;;;;;;14.43;2.00;;;;;;;;;;5001544;28;20038;-78
2024/03/30 12:32:42;;;;;;;17.40;3.10;;;;;;;;;;5031754;28;20041;-78
2024/03/30 12:35:08;;;;;;;13.30;2.17;;;;;;;;;;5004494;28;20381;-78
2024/03/30 12:37:33;;;;;;;11.07;1.80;;;;;;;;;;5000154;28;20065;-78
2024/03/30 12:39:59;;;;;;;12.60;2.10;;;;;;;;;;4990508;28;20077;-78
2024/03/30 12:42:25;;;;;;;12.23;2.40;;;;;;;;;;4993967;28;20527;-78
2024/03/30 12:44:57;;;;;;;7.45;1.80;;;;;;;;;;4995459;28;20046;-78
2024/03/30 12:47:23;;;;;;;11.20;1.80;;;;;;;;;;4994856;28;20045;-78
2024/03/30 12:49:50;;;;;;;11.38;2.75;;;;;;;;;;5011509;28;20065;-77
2024/03/30 12:52:15;;;;;;;14.23;2.25;;;;;;;;;;5011242;28;20419;-77
2024/03/30 12:54:42;;;;;;;14.82;2.55;;;;;;;;;;5011573;28;20056;-78
2024/03/30 12:57:08;;;;;;;11.50;2.42;;;;;;;;;;4994639;28;20056;-77
2024/03/30 12:59:34;;;;;;;9.77;2.05;;;;;;;;;;4975502;28;20046;-78
2024/03/30 13:02:04;;;;;;;12.35;1.75;;;;;;;;;;5008620;28;20096;-78
2024/03/30 13:04:31;;;;;;;8.52;1.73;;;;;;;;;;5011229;28;20053;-77
2024/03/30 13:06:57;;;;;;;8.65;1.70;;;;;;;;;;5007671;28;20546;-78
2024/03/30 13:09:23;;;;;;;9.68;1.50;;;;;;;;;;5010865;28;20077;-78
2024/03/30 13:11:50;;;;;;;8.32;1.60;;;;;;;;;;5011049;28;20391;-77
2024/03/30 13:14:15;;;;;;;5.32;1.25;;;;;;;;;;4994034;28;20038;-77
2024/03/30 13:16:41;;;;;;;11.25;1.75;;;;;;;;;;4993596;28;20117;-79
2024/03/30 13:19:14;;;;;;;9.57;2.20;;;;;;;;;;5007840;28;20117;-78
2024/03/30 13:21:41;;;;;;;7.38;1.45;;;;;;;;;;5002531;28;20050;-78
2024/03/30 13:24:08;;;;;;;8.52;2.55;;;;;;;;;;5007589;28;20103;-78
2024/03/30 13:26:36;;;;;;;8.70;2.70;;;;;;;;;;4990635;28;20044;-78
2024/03/30 13:29:02;;;;;;;8.23;1.70;;;;;;;;;;5001189;28;20030;-78
2024/03/30 13:31:28;;;;;;;11.02;1.58;;;;;;;;;;5009123;28;20042;-78
2024/03/30 13:33:54;;;;;;;7.80;1.70;;;;;;;;;;4993064;28;20057;-78
2024/03/30 13:36:19;;;;;;;9.02;1.75;;;;;;;;;;5009202;28;20497;-78
2024/03/30 13:38:45;;;;;;;9.95;2.03;;;;;;;;;;5008178;28;20472;-78
2024/03/30 13:41:11;;;;;;;9.15;1.60;;;;;;;;;;5002290;28;20050;-78
2024/03/30 13:43:37;;;;;;;11.68;1.35;;;;;;;;;;4996694;28;20129;-78
2024/03/30 13:46:03;;;;;;;8.38;1.13;;;;;;;;;;5008168;28;20448;-77
2024/03/30 13:48:29;;;;;;;9.05;1.52;;;;;;;;;;4980465;28;20045;-78
2024/03/30 13:50:56;;;;;;;11.25;1.80;;;;;;;;;;4972703;28;20400;-78
2024/03/30 13:53:23;;;;;;;6.65;1.50;;;;;;;;;;5008655;28;20064;-78
2024/03/30 13:55:49;;;;;;;8.95;1.65;;;;;;;;;;5009095;28;20050;-78
2024/03/30 13:58:18;;;;;;;10.18;1.45;;;;;;;;;;4991110;28;20048;-78
2024/03/30 14:00:45;;;;;;;8.70;1.83;;;;;;;;;;4992620;28;20497;-78
2024/03/30 14:03:11;;;;;;;9.75;1.50;;;;;;;;;;4988293;28;20431;-77
2024/03/30 14:05:37;;;;;;;9.10;2.20;;;;;;;;;;5008964;28;20073;-77
2024/03/30 14:08:03;;;;;;;14.10;1.77;;;;;;;;;;4992826;28;20046;-78
2024/03/30 14:10:29;;;;;;;15.23;1.85;;;;;;;;;;5002749;28;20742;-78
2024/03/30 14:12:55;;;;;;;12.45;2.10;;;;;;;;;;5004464;28;20045;-78
2024/03/30 14:15:20;;;;;;;14.98;2.20;;;;;;;;;;5002578;28;20042;-77
2024/03/30 14:17:48;;;;;;;9.10;1.80;;;;;;;;;;4987546;28;20049;-78
2024/03/30 14:20:16;;;;;;;7.20;1.27;;;;;;;;;;4989005;28;20435;-78
2024/03/30 14:22:41;;;;;;;9.50;1.73;;;;;;;;;;4973985;28;20092;-78
2024/03/30 14:25:07;;;;;;;7.00;1.40;;;;;;;;;;4989733;28;20132;-78
2024/03/30 14:27:32;;;;;;;11.80;1.90;;;;;;;;;;5008357;28;20038;-78
2024/03/30 14:29:58;;;;;;;10.48;1.83;;;;;;;;;;5011530;28;20037;-78
2024/03/30 14:32:25;;;;;;;9.10;1.45;;;;;;;;;;5012214;28;20087;-78